createdAt,value
2019-01-02T00:00:47.254Z,83.60
2019-01-02T00:03:15.588Z,82.80
2019-01-02T00:05:43.158Z,82.80
2019-01-02T00:08:10.752Z,82.90
2019-01-02T00:10:38.324Z,82.90
2019-01-02T00:13:06.656Z,81.80
2019-01-02T00:15:34.250Z,81.70
2019-01-02T00:18:03.205Z,81.80
2019-01-02T00:20:30.781Z,81.30
2019-01-02T00:22:59.044Z,81.50
2019-01-02T00:25:26.616Z,81.50
2019-01-02T00:27:54.202Z,81.80
2019-01-02T00:30:21.806Z,81.90
2019-01-02T00:32:49.394Z,81.90
2019-01-02T00:35:16.966Z,81.80
2019-01-02T00:37:44.849Z,81.60
2019-01-02T00:40:12.428Z,81.90
2019-01-02T00:42:40.766Z,80.80
2019-01-02T00:45:08.364Z,80.80
2019-01-02T00:47:35.930Z,80.40
2019-01-02T00:50:03.866Z,80.60
2019-01-02T00:52:31.427Z,80.90
2019-01-02T00:54:58.997Z,81.40
2019-01-02T00:57:26.593Z,81.40
2019-01-02T00:59:54.935Z,81.50
2019-01-02T01:02:22.526Z,81.50
2019-01-02T01:04:50.871Z,81.10
2019-01-02T01:07:18.744Z,81.10
2019-01-02T01:09:46.324Z,81.00
2019-01-02T01:12:13.898Z,81.10
2019-01-02T01:14:42.259Z,79.10
2019-01-02T01:17:09.838Z,79.00
2019-01-02T01:19:39.009Z,77.60
2019-01-02T01:22:06.583Z,77.60
2019-01-02T01:24:34.160Z,77.20
2019-01-02T01:27:02.526Z,77.40
2019-01-02T01:29:30.091Z,77.40
2019-01-02T01:31:57.692Z,76.90
2019-01-02T01:34:25.254Z,76.80
2019-01-02T01:36:52.829Z,76.80
2019-01-02T01:39:20.425Z,76.20
2019-01-02T01:41:47.994Z,76.10
2019-01-02T01:44:15.953Z,76.20
2019-01-02T01:46:43.535Z,75.10
2019-01-02T01:49:11.868Z,74.90
2019-01-02T01:51:39.478Z,74.90
2019-01-02T01:54:07.052Z,74.50
2019-01-02T01:56:35.749Z,74.70
2019-01-02T01:59:04.120Z,74.90
2019-01-02T02:01:31.654Z,74.80
2019-01-02T02:03:59.247Z,75.20
2019-01-02T02:06:26.827Z,75.50
2019-01-02T02:08:54.749Z,75.60
2019-01-02T02:11:22.320Z,75.30
2019-01-02T02:13:50.660Z,75.20
2019-01-02T02:16:18.255Z,75.30
2019-01-02T02:18:45.825Z,75.60
2019-01-02T02:21:14.452Z,75.80
2019-01-02T02:23:42.020Z,75.80
2019-01-02T02:26:09.586Z,75.30
2019-01-02T02:28:37.183Z,74.50
2019-01-02T02:31:04.760Z,74.10
2019-01-02T02:33:34.032Z,73.40
2019-01-02T02:36:01.613Z,73.40
2019-01-02T02:38:29.188Z,73.20
2019-01-02T02:40:57.543Z,73.60
2019-01-02T02:43:25.121Z,73.50
2019-01-02T02:45:52.991Z,73.80
2019-01-02T02:48:21.331Z,74.00
2019-01-02T02:50:48.905Z,73.80
2019-01-02T02:53:16.501Z,73.50
2019-01-02T02:55:44.829Z,73.80
2019-01-02T02:58:12.434Z,73.70
2019-01-02T03:00:40.777Z,74.40
2019-01-02T03:03:08.348Z,74.30
2019-01-02T03:05:35.949Z,74.50
2019-01-02T03:08:04.292Z,74.90
2019-01-02T03:10:31.956Z,74.90
2019-01-02T03:12:59.522Z,75.30
2019-01-02T03:15:27.365Z,76.40
2019-01-02T03:17:54.964Z,75.60
2019-01-02T03:20:22.536Z,74.80
2019-01-02T03:22:50.907Z,74.80
2019-01-02T03:25:18.476Z,74.80
2019-01-02T03:27:46.818Z,75.40
2019-01-02T03:30:14.416Z,75.40
2019-01-02T03:32:42.770Z,76.10
2019-01-02T03:35:10.358Z,75.80
2019-01-02T03:37:38.699Z,75.60
2019-01-02T03:40:09.050Z,75.60
2019-01-02T03:42:36.648Z,76.00
2019-01-02T03:45:04.218Z,76.30
2019-01-02T03:47:32.640Z,76.50
2019-01-02T03:50:00.351Z,76.80
2019-01-02T03:52:27.923Z,77.20
2019-01-02T03:54:55.517Z,77.80
2019-01-02T03:57:23.089Z,77.90
2019-01-02T03:59:50.695Z,78.10
2019-01-02T04:02:18.271Z,78.50
2019-01-02T04:04:45.839Z,78.90
2019-01-02T04:07:13.439Z,78.80
2019-01-02T04:09:41.009Z,79.20
2019-01-02T04:12:08.615Z,79.20
2019-01-02T04:14:36.214Z,79.20
2019-01-02T04:17:03.769Z,79.20
2019-01-02T04:19:31.364Z,79.50
2019-01-02T04:21:58.970Z,79.80
2019-01-02T04:24:27.327Z,78.90
2019-01-02T04:26:55.662Z,78.10
2019-01-02T04:29:23.231Z,78.10
2019-01-02T04:31:50.822Z,77.60
2019-01-02T04:34:19.162Z,77.00
2019-01-02T04:36:46.735Z,77.00
2019-01-02T04:39:14.331Z,76.90
2019-01-02T04:41:42.912Z,76.70
2019-01-02T04:44:10.479Z,76.70
2019-01-02T04:46:38.077Z,76.40
2019-01-02T04:49:05.655Z,76.40
2019-01-02T04:51:33.235Z,76.50
2019-01-02T04:54:01.188Z,76.50
2019-01-02T04:56:28.774Z,76.40
2019-01-02T04:58:56.347Z,76.80
2019-01-02T05:01:23.955Z,77.00
2019-01-02T05:03:51.527Z,76.70
2019-01-02T05:06:19.099Z,76.70
2019-01-02T05:08:46.959Z,76.70
2019-01-02T05:11:14.527Z,77.80
2019-01-02T05:13:42.105Z,77.40
2019-01-02T05:16:09.690Z,77.10
2019-01-02T05:18:38.038Z,76.80
2019-01-02T05:21:05.635Z,77.50
2019-01-02T05:23:33.204Z,76.70
2019-01-02T05:26:00.769Z,76.60
2019-01-02T05:28:28.372Z,76.60
2019-01-02T05:30:55.980Z,77.00
2019-01-02T05:33:23.807Z,77.00
2019-01-02T05:35:51.391Z,77.00
2019-01-02T05:38:19.722Z,78.00
2019-01-02T05:40:47.320Z,77.10
2019-01-02T05:43:14.918Z,76.50
2019-01-02T05:45:42.751Z,76.30
2019-01-02T05:48:10.337Z,76.30
2019-01-02T05:50:38.711Z,75.60
2019-01-02T05:53:06.283Z,75.60
2019-01-02T05:55:34.626Z,75.60
2019-01-02T05:58:02.490Z,75.60
2019-01-02T06:00:30.056Z,75.10
2019-01-02T06:02:57.626Z,76.00
2019-01-02T06:05:25.220Z,75.30
2019-01-02T06:07:52.795Z,75.00
2019-01-02T06:10:20.717Z,74.80
2019-01-02T06:12:48.298Z,74.90
2019-01-02T06:15:16.634Z,75.10
2019-01-02T06:17:44.230Z,75.00
2019-01-02T06:20:12.569Z,74.80
2019-01-02T06:22:40.459Z,75.20
2019-01-02T06:25:08.068Z,75.70
2019-01-02T06:27:35.602Z,75.50
2019-01-02T06:30:03.963Z,75.30
2019-01-02T06:32:31.534Z,75.30
2019-01-02T06:34:59.495Z,75.30
2019-01-02T06:37:27.094Z,75.40
2019-01-02T06:39:54.628Z,75.00
2019-01-02T06:42:22.219Z,74.80
2019-01-02T06:44:49.790Z,74.40
2019-01-02T06:47:17.706Z,74.10
2019-01-02T06:49:45.271Z,74.10
2019-01-02T06:52:12.840Z,74.30
2019-01-02T06:54:40.431Z,74.40
2019-01-02T06:57:08.771Z,74.50
2019-01-02T06:59:36.748Z,74.40
2019-01-02T07:02:04.317Z,74.60
2019-01-02T07:04:31.893Z,74.70
2019-01-02T07:07:00.257Z,74.00
2019-01-02T07:09:27.824Z,74.00
2019-01-02T07:11:55.424Z,74.00
2019-01-02T07:14:22.997Z,73.70
2019-01-02T07:16:50.572Z,74.10
2019-01-02T07:19:18.187Z,74.50
2019-01-02T07:21:45.768Z,74.80
2019-01-02T07:24:13.638Z,75.10
2019-01-02T07:26:41.211Z,75.50
2019-01-02T07:29:08.781Z,75.30
2019-01-02T07:31:37.090Z,75.00
2019-01-02T07:34:04.546Z,75.10
2019-01-02T07:36:53.396Z,75.40
2019-01-02T07:39:39.623Z,75.20
2019-01-02T07:42:19.554Z,75.30
2019-01-02T07:45:08.232Z,75.30
2019-01-02T07:47:54.685Z,74.70
2019-01-02T07:50:49.724Z,75.00
2019-01-02T07:53:33.150Z,75.90
2019-01-02T07:56:21.875Z,75.70
2019-01-02T07:59:13.859Z,76.10
2019-01-02T08:02:02.910Z,75.20
2019-01-02T08:04:33.352Z,74.90
2019-01-02T08:07:34.850Z,75.40
2019-01-02T08:10:11.361Z,75.80
2019-01-02T08:13:06.099Z,76.40
2019-01-02T08:15:52.311Z,77.20
2019-01-02T08:18:35.172Z,77.20
2019-01-02T08:21:11.750Z,77.60
2019-01-02T08:23:48.066Z,77.50
2019-01-02T08:26:30.522Z,78.30
2019-01-02T08:29:34.751Z,77.80
2019-01-02T08:32:23.158Z,77.20
2019-01-02T08:35:11.370Z,77.20
2019-01-02T08:37:51.124Z,77.00
2019-01-02T08:40:30.943Z,77.00
2019-01-02T08:43:10.152Z,77.00
2019-01-02T08:45:40.304Z,77.10
2019-01-02T08:48:22.593Z,77.30
2019-01-02T08:50:50.176Z,77.30
2019-01-02T08:53:17.751Z,77.50
2019-01-02T08:55:54.740Z,76.70
2019-01-02T08:58:41.037Z,76.70
2019-01-02T09:01:12.335Z,76.60
2019-01-02T09:04:01.057Z,76.50
2019-01-02T09:06:40.453Z,76.40
2019-01-02T09:09:10.672Z,76.80
2019-01-02T09:11:40.960Z,77.00
2019-01-02T09:14:08.631Z,76.50
2019-01-02T09:16:41.687Z,75.60
2019-01-02T09:19:10.158Z,75.50
2019-01-02T09:21:49.575Z,75.40
2019-01-02T09:24:36.169Z,75.30
2019-01-02T09:27:37.656Z,75.10
2019-01-02T09:30:30.175Z,74.60
2019-01-02T09:33:09.714Z,74.10
2019-01-02T09:35:52.402Z,73.70
2019-01-02T09:38:37.770Z,72.70
2019-01-02T09:41:26.390Z,72.80
2019-01-02T09:43:54.895Z,73.10
2019-01-02T09:46:29.279Z,74.10
2019-01-02T09:49:11.926Z,74.10
2019-01-02T09:51:55.133Z,75.30
2019-01-02T09:54:28.300Z,75.20
2019-01-02T09:57:17.632Z,75.40
2019-01-02T09:59:57.493Z,75.60
2019-01-02T10:02:40.017Z,75.20
2019-01-02T10:05:22.504Z,75.20
2019-01-02T10:07:56.141Z,74.60
2019-01-02T10:10:29.636Z,74.60
2019-01-02T10:13:06.389Z,74.80
2019-01-02T10:15:34.842Z,75.00
2019-01-02T10:18:08.203Z,75.00
2019-01-02T10:20:44.681Z,75.10
2019-01-02T10:23:18.249Z,75.30
2019-01-02T10:25:54.478Z,75.00
2019-01-02T10:28:49.169Z,74.70
2019-01-02T10:31:16.783Z,74.70
2019-01-02T10:33:56.346Z,74.90
2019-01-02T10:37:01.320Z,75.00
2019-01-02T10:39:47.809Z,75.50
2019-01-02T10:42:21.168Z,75.90
2019-01-02T10:45:13.090Z,76.30
2019-01-02T10:47:43.377Z,76.60
2019-01-02T10:50:19.992Z,76.50
2019-01-02T10:53:02.557Z,76.30
2019-01-02T10:56:00.466Z,76.20
2019-01-02T10:58:36.407Z,75.70
2019-01-02T11:01:13.314Z,75.70
2019-01-02T11:04:01.881Z,76.00
2019-01-02T11:06:44.519Z,76.50
2019-01-02T11:09:36.541Z,76.40
2019-01-02T11:12:04.151Z,76.10
2019-01-02T11:14:44.193Z,76.20
2019-01-02T11:17:20.884Z,76.10
2019-01-02T11:20:01.222Z,76.10
2019-01-02T11:22:37.800Z,76.10
2019-01-02T11:25:26.933Z,76.40
2019-01-02T11:28:00.449Z,76.60
2019-01-02T11:30:49.291Z,76.80
2019-01-02T11:33:22.056Z,77.10
2019-01-02T11:36:07.949Z,77.30
2019-01-02T11:38:38.343Z,77.30
2019-01-02T11:41:07.085Z,77.80
2019-01-02T11:43:55.792Z,77.70
2019-01-02T11:46:27.436Z,78.10
2019-01-02T11:48:55.041Z,78.10
2019-01-02T11:51:22.611Z,77.90
2019-01-02T11:53:50.489Z,77.80
2019-01-02T11:56:18.089Z,78.40
2019-01-02T11:58:49.888Z,77.50
2019-01-02T12:01:14.841Z,77.70
2019-01-02T12:03:42.408Z,77.60
2019-01-02T12:06:09.989Z,78.00
2019-01-02T12:08:41.615Z,77.90
2019-01-02T12:11:15.187Z,77.80
2019-01-02T12:13:43.512Z,77.70
2019-01-02T12:16:11.093Z,77.60
2019-01-02T12:18:38.688Z,77.10
2019-01-02T12:21:06.266Z,76.40
2019-01-02T12:23:34.139Z,76.30
2019-01-02T12:26:01.727Z,76.00
2019-01-02T12:28:29.303Z,75.00
2019-01-02T12:30:57.271Z,74.30
2019-01-02T12:33:28.231Z,74.30
2019-01-02T12:35:55.770Z,74.20
2019-01-02T12:38:24.147Z,72.80
2019-01-02T12:43:28.503Z,71.80
2019-01-02T12:45:56.063Z,72.30
2019-01-02T12:48:23.641Z,72.90
2019-01-02T12:50:51.239Z,73.40
2019-01-02T12:53:18.801Z,73.80
2019-01-02T12:55:46.398Z,74.00
2019-01-02T12:58:15.033Z,73.50
2019-01-02T13:00:42.610Z,73.40
2019-01-02T13:03:28.425Z,73.10
2019-01-02T13:06:30.558Z,73.20
2019-01-02T13:09:03.726Z,72.70
2019-01-02T13:11:31.309Z,71.80
2019-01-02T13:14:13.653Z,71.50
2019-01-02T13:16:55.775Z,70.20
2019-01-02T13:19:32.805Z,70.30
2019-01-02T13:22:08.979Z,70.20
2019-01-02T13:24:45.085Z,70.50
2019-01-02T13:27:15.943Z,71.00
2019-01-02T13:30:13.584Z,71.00
2019-01-02T13:32:53.087Z,71.30
2019-01-02T13:35:41.761Z,71.50
2019-01-02T13:38:24.007Z,71.90
2019-01-02T13:40:51.923Z,72.40
2019-01-02T13:43:25.471Z,72.50
2019-01-02T13:46:14.186Z,72.50
2019-01-02T13:48:41.750Z,72.50
2019-01-02T13:51:09.319Z,72.20
2019-01-02T13:53:37.404Z,71.60
2019-01-02T13:56:04.962Z,71.40
2019-01-02T13:58:32.532Z,71.00
2019-01-02T14:01:00.151Z,70.40
2019-01-02T14:03:27.716Z,70.40
2019-01-02T14:05:55.422Z,70.30
2019-01-02T14:08:23.760Z,69.00
2019-01-02T14:10:51.337Z,69.00
2019-01-02T14:13:18.932Z,68.10
2019-01-02T14:15:46.495Z,67.50
2019-01-02T14:18:14.115Z,66.80
2019-01-02T14:20:41.679Z,66.90
2019-01-02T14:23:09.526Z,66.90
2019-01-02T14:25:37.117Z,66.80
2019-01-02T14:28:04.701Z,67.00
2019-01-02T14:30:33.448Z,66.70
2019-01-02T14:33:01.023Z,67.10
2019-01-02T14:35:28.607Z,67.60
2019-01-02T14:37:56.208Z,68.10
2019-01-02T14:40:23.781Z,68.70
2019-01-02T14:42:52.640Z,68.40
2019-01-02T14:45:20.216Z,68.40
2019-01-02T14:47:47.785Z,68.60
2019-01-02T14:50:15.390Z,68.90
2019-01-02T14:52:43.348Z,69.10
2019-01-02T14:55:11.624Z,69.50
2019-01-02T14:57:39.193Z,69.60
2019-01-02T15:00:06.776Z,70.10
2019-01-02T15:02:35.138Z,70.50
2019-01-02T15:05:02.713Z,70.20
2019-01-02T15:07:31.077Z,70.10
2019-01-02T15:09:59.346Z,69.70
2019-01-02T15:12:26.220Z,69.60
2019-01-02T15:14:54.575Z,68.50
2019-01-02T15:17:22.158Z,68.50
2019-01-02T15:19:50.075Z,68.20
2019-01-02T15:22:17.872Z,67.80
2019-01-02T15:24:49.438Z,67.50
2019-01-02T15:27:13.033Z,67.70
2019-01-02T15:29:41.049Z,68.00
2019-01-02T15:32:08.664Z,68.90
2019-01-02T15:34:37.005Z,68.40
2019-01-02T15:37:04.683Z,68.30
2019-01-02T15:39:32.285Z,68.20
2019-01-02T15:41:59.854Z,67.90
2019-01-02T15:44:27.473Z,67.90
2019-01-02T15:46:55.041Z,68.00
2019-01-02T15:49:23.376Z,67.80
2019-01-02T15:51:50.970Z,67.70
2019-01-02T15:54:18.550Z,67.60
2019-01-02T15:56:46.166Z,67.70
2019-01-02T15:59:13.736Z,67.90
2019-01-02T16:01:41.303Z,68.10
2019-01-02T16:04:08.908Z,68.30
2019-01-02T16:06:36.491Z,68.40
2019-01-02T16:09:04.155Z,68.60
2019-01-02T16:11:31.754Z,68.40
2019-01-02T16:13:59.336Z,68.70
2019-01-02T16:16:26.982Z,68.70
2019-01-02T16:18:54.586Z,68.70
2019-01-02T16:21:22.239Z,68.90
2019-01-02T16:23:50.999Z,69.70
2019-01-02T16:26:18.564Z,69.60
2019-01-02T16:28:46.151Z,70.20
2019-01-02T16:31:14.511Z,71.60
2019-01-02T16:33:42.088Z,72.30
2019-01-02T16:36:10.434Z,71.20
2019-01-02T16:38:38.017Z,71.10
2019-01-02T16:41:05.587Z,71.20
2019-01-02T16:43:33.932Z,71.90
2019-01-02T16:46:02.111Z,71.70
2019-01-02T16:48:29.692Z,72.20
2019-01-02T16:50:57.260Z,72.80
2019-01-02T16:53:26.130Z,72.80
2019-01-02T16:55:53.706Z,72.80
2019-01-02T16:58:21.381Z,72.90
2019-01-02T17:00:50.445Z,73.60
2019-01-02T17:03:18.015Z,73.60
2019-01-02T17:05:45.582Z,73.90
2019-01-02T17:08:13.210Z,74.10
2019-01-02T17:10:40.784Z,73.60
2019-01-02T17:13:08.356Z,73.80
2019-01-02T17:15:35.957Z,73.80
2019-01-02T17:18:03.525Z,73.90
2019-01-02T17:20:31.192Z,74.10
2019-01-02T17:22:58.774Z,74.40
2019-01-02T17:25:26.362Z,74.60
2019-01-02T17:27:54.002Z,74.80
2019-01-02T17:30:21.650Z,74.90
2019-01-02T17:32:49.211Z,75.10
2019-01-02T17:35:16.775Z,75.30
2019-01-02T17:37:44.348Z,75.60
2019-01-02T17:40:11.935Z,75.80
2019-01-02T17:42:39.506Z,76.10
2019-01-02T17:45:07.131Z,76.50
2019-01-02T17:47:34.711Z,76.80
2019-01-02T17:50:02.279Z,76.40
2019-01-02T17:52:29.881Z,76.50
2019-01-02T17:54:58.238Z,76.90
2019-01-02T17:57:25.850Z,76.90
2019-01-02T17:59:53.420Z,76.60
2019-01-02T18:02:20.986Z,76.90
2019-01-02T18:04:48.580Z,77.20
2019-01-02T18:07:16.145Z,77.50
2019-01-02T18:09:43.759Z,77.90
2019-01-02T18:12:11.324Z,78.40
2019-01-02T18:14:38.895Z,78.10
2019-01-02T18:17:06.617Z,77.80
2019-01-02T18:19:35.028Z,78.50
2019-01-02T18:22:02.936Z,78.40
2019-01-02T18:24:30.506Z,78.60
2019-01-02T18:26:58.082Z,79.00
2019-01-02T18:29:25.667Z,79.40
2019-01-02T18:31:53.251Z,79.70
2019-01-02T18:34:20.860Z,79.60
2019-01-02T18:36:48.432Z,79.80
2019-01-02T18:39:16.770Z,80.40
2019-01-02T18:41:44.365Z,80.40
2019-01-02T18:44:12.700Z,80.70
2019-01-02T18:46:41.002Z,80.70
2019-01-02T18:49:08.573Z,81.00
2019-01-02T18:51:36.149Z,81.10
2019-01-02T18:54:03.746Z,81.20
2019-01-02T18:56:31.324Z,81.40
2019-01-02T18:58:58.966Z,81.60
2019-01-02T19:01:26.537Z,81.70
2019-01-02T19:03:54.103Z,82.00
2019-01-02T19:06:21.712Z,82.20
2019-01-02T19:08:49.275Z,82.20
2019-01-02T19:11:16.892Z,82.30
2019-01-02T19:13:44.973Z,82.70
2019-01-02T19:16:12.542Z,82.90
2019-01-02T19:18:40.140Z,83.10
2019-01-02T19:21:08.526Z,83.40
2019-01-02T19:23:37.898Z,83.50
2019-01-02T19:26:05.464Z,83.50
2019-01-02T19:28:33.044Z,83.50
2019-01-02T19:31:01.406Z,83.30
2019-01-02T19:33:28.977Z,83.30
2019-01-02T19:35:56.927Z,83.30
2019-01-02T19:38:25.091Z,83.50
2019-01-02T19:40:52.661Z,83.70
2019-01-02T19:43:20.257Z,83.90
2019-01-02T19:45:48.603Z,84.20
2019-01-02T19:48:16.507Z,84.20
2019-01-02T19:50:44.856Z,83.00
2019-01-02T19:53:12.421Z,82.90
2019-01-02T19:55:40.015Z,82.30
2019-01-02T19:58:08.347Z,83.00
2019-01-02T20:00:35.959Z,82.90
2019-01-02T20:03:04.294Z,82.60
2019-01-02T20:05:31.864Z,82.50
2019-01-02T20:07:59.458Z,82.70
2019-01-02T20:10:28.298Z,82.40
2019-01-02T20:12:56.180Z,82.30
2019-01-02T20:15:23.755Z,81.90
2019-01-02T20:17:51.342Z,82.10
2019-01-02T20:20:19.710Z,83.10
2019-01-02T20:22:47.960Z,83.10
2019-01-02T20:25:15.833Z,82.80
2019-01-02T20:27:43.421Z,83.10
2019-01-02T20:30:11.759Z,83.70
2019-01-02T20:32:39.348Z,83.70
2019-01-02T20:35:06.932Z,83.30
2019-01-02T20:37:35.303Z,84.10
2019-01-02T20:40:03.698Z,83.50
2019-01-02T20:42:31.242Z,83.50
2019-01-02T20:44:58.846Z,83.60
2019-01-02T20:47:26.413Z,83.80
2019-01-02T20:49:54.012Z,83.50
2019-01-02T20:52:21.580Z,83.50
2019-01-02T20:54:49.151Z,83.50
2019-01-02T20:57:16.738Z,83.80
2019-01-02T20:59:44.313Z,83.40
2019-01-02T21:02:12.315Z,82.90
2019-01-02T21:04:39.890Z,83.20
2019-01-02T21:07:07.472Z,83.60
2019-01-02T21:09:35.831Z,85.00
2019-01-02T21:12:03.409Z,84.20
2019-01-02T21:14:31.017Z,83.50
2019-01-02T21:16:58.586Z,83.90
2019-01-02T21:19:26.162Z,84.40
2019-01-02T21:21:53.758Z,84.70
2019-01-02T21:24:22.090Z,85.30
2019-01-02T21:26:50.901Z,85.30
2019-01-02T21:29:18.462Z,84.90
2019-01-02T21:31:46.035Z,85.00
2019-01-02T21:34:13.618Z,85.30
2019-01-02T21:36:41.960Z,85.00
2019-01-02T21:39:09.565Z,84.90
2019-01-02T21:41:37.901Z,85.20
2019-01-02T21:44:05.466Z,85.10
2019-01-02T21:46:33.062Z,85.40
2019-01-02T21:49:01.404Z,85.90
2019-01-02T21:51:29.336Z,85.80
2019-01-02T21:53:56.900Z,85.90
2019-01-02T21:56:24.475Z,86.10
2019-01-02T21:58:52.073Z,86.20
2019-01-02T22:01:19.654Z,86.20
2019-01-02T22:03:48.023Z,86.70
2019-01-02T22:06:15.594Z,86.60
2019-01-02T22:08:43.929Z,87.20
2019-01-02T22:11:11.520Z,86.30
2019-01-02T22:13:39.091Z,86.40
2019-01-02T22:16:06.712Z,86.50
2019-01-02T22:18:35.026Z,86.80
2019-01-02T22:21:02.595Z,86.80
2019-01-02T22:23:30.928Z,87.00
2019-01-02T22:25:58.519Z,87.00
2019-01-02T22:28:26.098Z,87.10
2019-01-02T22:30:54.451Z,88.10
2019-01-02T22:33:23.328Z,87.70
2019-01-02T22:35:50.917Z,87.20
2019-01-02T22:38:18.489Z,86.30
2019-01-02T22:40:46.096Z,85.50
2019-01-02T22:43:13.665Z,85.50
2019-01-02T22:45:41.237Z,85.70
2019-01-02T22:48:08.848Z,86.00
2019-01-02T22:50:37.196Z,86.60
2019-01-02T22:53:04.768Z,86.50
2019-01-02T22:55:32.356Z,87.00
2019-01-02T22:58:00.702Z,88.10
2019-01-02T23:00:28.561Z,88.10
2019-01-02T23:02:56.128Z,87.50
2019-01-02T23:05:29.545Z,87.10
2019-01-02T23:08:06.613Z,87.30
2019-01-02T23:10:42.949Z,86.60
2019-01-02T23:13:10.541Z,86.50
2019-01-02T23:15:44.025Z,86.60
2019-01-02T23:18:11.625Z,85.90
2019-01-02T23:20:46.160Z,86.30
2019-01-02T23:23:20.851Z,86.60
2019-01-02T23:25:57.555Z,86.60
2019-01-02T23:28:37.742Z,87.10
2019-01-02T23:31:05.311Z,87.10
2019-01-02T23:33:41.425Z,87.40
2019-01-02T23:36:08.986Z,87.70
2019-01-02T23:38:45.695Z,87.90
2019-01-02T23:41:19.253Z,88.10
2019-01-02T23:44:05.103Z,88.20
2019-01-02T23:46:35.622Z,88.40
2019-01-02T23:49:03.188Z,89.10
2019-01-02T23:51:48.680Z,88.60
2019-01-02T23:54:34.605Z,88.80
2019-01-02T23:57:08.167Z,88.10
2019-01-02T23:59:39.013Z,88.00
